Date,TemperatureHighF,TemperatureAvgF,TemperatureLowF,DewpointHighF,DewpointAvgF,DewpointLowF,HumidityHigh,HumidityAvg,HumidityLow,PressureMaxIn,PressureMinIn,WindSpeedMaxMPH,WindSpeedAvgMPH,GustSpeedMaxMPH,PrecipitationSumIn
2013-1-1,42.4,38.1,34.3,28.2,24.8,21.4,72,59,44,29.91,29.29,10,6,19,0.00
2013-1-2,51.1,45.8,38.7,45.6,37.7,26.4,82,73,61,30.06,29.91,12,6,22,0.16
2013-1-3,51.4,50.1,48.0,43.6,36.6,30.0,76,60,46,30.39,30.06,16,8,29,0.00
2013-1-4,50.2,48.4,46.8,41.5,35.3,27.3,73,61,45,30.44,30.39,9,7,17,0.00
2013-1-5,49.5,48.1,44.8,40.4,33.4,27.3,71,57,45,30.44,30.27,13,6,25,0.04
2013-1-6,49.1,44.3,36.9,41.7,32.9,27.9,76,65,48,30.44,30.18,9,3,17,0.00
2013-1-7,49.1,47.6,46.9,41.5,38.9,33.3,75,72,58,30.18,30.00,7,3,13,0.20
2013-1-8,51.4,46.4,38.8,44.3,33.9,25.3,77,63,47,30.15,29.97,10,5,18,0.08
2013-1-9,44.1,39.3,35.6,35.9,28.6,23.3,77,66,52,30.15,30.03,7,3,12,0.00
2013-1-10,40.3,37.0,31.6,33.0,28.9,21.7,76,72,63,30.06,29.94,5,0,6,0.08
2013-1-11,41.0,37.3,32.5,34.5,30.7,25.3,78,77,75,30.00,29.94,5,1,7,0.00
2013-1-12,38.5,33.4,29.7,30.4,22.7,15.5,77,65,48,30.09,29.94,6,2,8,0.00
2013-1-13,36.0,33.3,30.2,26.6,22.6,16.5,69,65,56,30.12,29.97,6,1,11,0.04
2013-1-14,37.4,33.7,29.1,29.7,23.7,15.4,75,67,56,29.97,29.74,7,2,12,0.04
2013-1-15,34.7,30.2,22.5,25.5,19.9,13.0,69,65,57,29.91,29.80,6,1,8,0.00
2013-1-16,32.7,28.7,21.9,20.0,15.2,10.5,71,57,43,29.97,29.85,5,0,6,0.00
2013-1-17,33.1,31.1,29.5,15.3,11.7,6.8,51,44,34,30.00,29.80,7,2,15,0.00
2013-1-18,33.3,30.6,28.2,19.4,8.2,2.2,63,39,31,29.80,29.56,10,5,15,0.00
2013-1-19,34.9,32.5,30.6,21.6,17.1,12.9,67,53,42,29.71,29.56,8,5,13,0.00
2013-1-20,32.2,31.5,30.6,18.7,13.1,10.3,58,46,41,29.71,29.53,8,3,11,0.00
2013-1-21,33.6,32.7,31.6,25.8,21.2,11.1,75,63,41,29.53,29.47,14,4,22,0.00
2013-1-22,33.8,32.8,31.1,25.4,20.2,14.2,73,60,46,29.83,29.50,10,4,16,0.04
2013-1-23,34.2,32.9,29.8,23.5,19.3,15.2,67,57,49,29.94,29.83,6,2,9,0.00
2013-1-24,36.1,33.5,31.8,24.9,19.6,11.7,69,57,41,30.06,29.94,7,2,14,0.04
2013-1-25,35.6,33.4,32.2,25.2,17.5,10.7,69,52,40,29.94,29.38,8,3,15,0.08
2013-1-26,44.2,37.6,33.3,35.7,23.8,15.8,74,58,39,29.56,28.97,12,6,24,0.35
2013-1-27,46.0,39.8,36.1,36.8,26.4,18.5,72,59,42,29.20,28.79,17,10,27,0.31
2013-1-28,44.6,39.9,36.3,35.6,24.8,17.1,74,55,41,29.35,28.88,21,10,29,0.55
2013-1-29,51.1,44.4,41.5,43.8,27.4,16.0,76,53,31,29.35,28.97,21,9,35,0.28
2013-1-30,42.8,40.6,38.7,29.2,21.1,16.2,67,46,34,29.65,29.12,18,11,30,0.12
2013-1-31,43.7,39.6,35.8,33.8,24.5,17.6,76,55,35,29.65,29.20,18,8,30,0.59
2013-2-1,41.0,37.0,31.3,31.8,22.1,10.3,71,56,37,29.80,29.35,15,5,22,0.12
2013-2-2,40.6,32.0,25.0,18.6,11.3,6.4,53,42,26,30.18,29.80,10,3,13,0.00
2013-2-3,47.3,43.3,34.0,39.4,27.9,14.7,81,56,37,30.00,29.50,17,10,29,0.08
2013-2-4,47.5,36.5,31.6,39.6,21.3,15.4,74,54,39,29.59,29.32,21,10,33,0.28
2013-2-5,40.5,35.7,30.4,29.7,20.8,13.1,73,55,38,29.59,29.09,15,8,22,0.24
2013-2-6,40.5,35.8,30.6,15.8,9.0,5.5,42,32,26,30.12,29.59,16,8,23,0.00
2013-2-7,38.3,33.0,28.7,20.6,14.2,5.7,53,46,35,30.12,30.00,6,1,9,0.00
2013-2-8,41.7,36.1,30.2,30.2,20.6,14.0,69,54,32,30.18,30.06,8,1,11,0.08
2013-2-9,40.0,37.6,36.0,32.8,28.5,22.1,75,70,54,30.12,29.80,7,2,8,0.04
2013-2-10,36.9,35.2,33.8,28.3,26.4,23.3,74,70,59,29.80,29.41,9,5,15,0.20
2013-2-11,38.9,34.7,31.0,25.9,16.8,8.4,69,49,29,29.94,29.47,10,5,15,0.04
2013-2-12,36.0,33.2,30.9,14.2,12.7,10.6,46,42,35,30.06,29.94,6,3,9,0.00
2013-2-13,43.5,34.4,28.2,36.1,21.0,10.1,75,58,44,30.06,29.50,12,4,23,0.51
2013-2-14,46.4,42.7,40.8,36.6,28.3,21.3,76,58,39,29.83,29.53,12,7,20,0.00
2013-2-15,48.4,40.3,30.9,31.1,22.8,15.8,68,51,29,30.09,29.83,8,3,15,0.00
2013-2-16,46.6,41.3,31.6,35.2,27.5,16.9,70,58,47,30.12,30.09,9,3,13,0.00
2013-2-17,49.5,39.8,28.6,29.5,20.7,9.9,61,48,26,30.12,30.06,7,2,11,0.00
2013-2-18,49.5,32.1,25.0,33.5,13.2,5.3,71,48,24,30.12,30.09,6,1,8,0.00
2013-2-19,43.2,33.0,23.9,29.2,18.4,8.7,70,55,30,30.12,30.09,9,3,14,0.00
2013-2-20,40.8,36.4,26.6,32.4,21.9,7.8,76,57,39,30.30,30.12,6,2,12,0.00
2013-2-21,39.4,30.4,22.5,16.4,8.9,4.9,58,41,26,30.33,30.27,8,2,12,0.00
2013-2-22,34.3,32.1,30.0,11.3,6.5,3.3,42,34,30,30.30,30.27,5,1,8,0.00
2013-2-23,38.3,32.6,29.7,18.1,12.1,5.6,55,43,26,30.36,30.27,7,1,12,0.00
2013-2-24,39.4,34.2,29.7,28.6,21.6,17.7,68,60,45,30.48,30.36,6,1,12,0.08
2013-2-25,41.6,33.9,28.2,30.8,21.4,12.7,74,61,39,30.62,30.48,7,2,12,0.00
2013-2-26,43.4,37.3,33.8,32.1,24.2,15.6,76,61,38,30.68,30.59,8,2,13,0.00
2013-2-27,50.7,35.1,24.4,35.4,18.5,9.3,76,54,26,30.68,30.56,6,1,8,0.00
2013-2-28,51.6,38.8,27.0,40.5,22.2,12.6,77,53,29,30.59,30.50,5,0,6,0.00
2013-3-1,49.8,38.1,29.3,24.7,15.6,5.9,57,41,24,30.53,30.42,9,2,13,0.00
2013-3-2,53.7,41.8,29.1,35.7,21.6,13.1,71,46,26,30.42,30.24,9,2,13,0.00
2013-3-3,47.1,42.5,38.8,31.0,20.9,14.5,59,43,28,30.24,30.09,8,1,12,0.00
2013-3-4,46.8,38.9,28.8,21.1,17.3,12.7,51,42,27,30.09,29.74,7,2,12,0.00
2013-3-5,48.0,35.4,27.0,32.0,17.2,10.6,68,49,24,29.74,29.65,8,2,13,0.00
2013-3-6,39.9,37.7,35.6,31.9,24.8,21.4,77,60,50,29.74,29.65,10,5,17,0.00
2013-3-7,42.4,40.0,38.5,38.2,33.4,23.9,85,77,55,29.65,29.53,12,7,20,0.12
2013-3-8,39.2,38.0,37.2,30.9,28.8,23.8,77,69,55,29.71,29.56,13,8,20,0.04
2013-3-9,37.4,36.1,34.3,30.8,23.4,6.8,78,62,31,29.88,29.71,13,7,24,0.12
2013-3-10,35.8,31.3,25.2,20.2,10.6,3.4,60,43,27,30.09,29.88,13,6,23,0.08
2013-3-11,32.6,26.3,16.9,10.8,4.5,-5.5,55,40,25,30.12,30.09,10,5,20,0.00
2013-3-12,43.3,29.2,13.0,15.0,4.7,-5.8,48,36,23,30.12,29.88,9,2,13,0.20
2013-3-13,41.3,32.8,23.4,12.2,6.0,0.0,46,33,23,29.97,29.88,8,2,12,0.00
2013-3-14,41.2,33.7,21.7,25.0,15.7,1.0,59,47,38,29.97,29.59,13,4,17,0.00
2013-3-15,46.0,38.7,30.4,28.2,18.9,8.3,61,46,28,29.59,29.35,12,5,16,0.00
2013-3-16,36.0,33.4,28.4,28.1,24.2,13.0,76,69,51,29.38,29.20,6,1,10,0.16
2013-3-17,38.5,35.3,31.5,32.2,27.8,22.6,78,74,59,29.26,29.12,9,3,14,0.63
2013-3-18,38.1,35.0,31.6,31.5,25.8,18.7,77,69,54,29.53,29.26,14,6,18,0.12
2013-3-19,34.2,33.1,31.8,28.3,25.8,21.0,80,74,64,29.65,29.53,15,7,25,0.04
2013-3-20,38.2,33.6,28.6,28.1,19.5,10.4,80,58,34,30.03,29.65,9,2,13,0.47
2013-3-21,38.3,31.3,22.6,18.1,11.0,5.6,62,44,26,30.09,30.00,13,4,20,0.00
2013-3-22,33.8,32.6,30.9,23.3,14.3,9.6,72,47,37,30.00,29.94,18,11,27,0.00
2013-3-23,32.2,31.4,30.6,17.5,9.0,3.5,56,39,31,30.18,30.00,17,10,25,0.00
2013-3-24,35.1,31.9,30.2,9.4,5.8,3.4,38,33,27,30.27,30.18,15,9,25,0.00
2013-3-25,35.2,32.4,30.9,10.8,7.2,4.4,42,34,31,30.30,30.24,12,7,17,0.00
2013-3-26,36.7,30.9,21.7,13.3,7.6,-1.1,49,37,27,30.24,30.15,14,4,16,0.00
2013-3-27,37.8,31.3,22.7,19.2,11.5,3.0,61,44,27,30.15,30.09,9,3,18,0.08
2013-3-28,39.6,33.1,26.4,21.0,11.2,3.5,62,42,23,30.09,30.03,9,3,13,0.08
2013-3-29,39.0,31.9,24.0,19.1,10.7,3.1,54,42,26,30.03,29.91,7,2,13,0.04
2013-3-30,38.8,30.9,22.6,18.5,9.6,4.6,54,41,29,30.00,29.94,6,2,8,0.00
2013-3-31,42.6,30.5,19.0,16.0,5.9,2.6,54,37,23,30.03,29.94,8,3,10,0.00
2013-4-1,42.4,33.1,24.3,8.9,5.8,4.0,44,32,23,30.06,29.97,10,4,15,0.00
2013-4-2,41.5,34.5,26.7,14.9,8.8,1.4,50,34,26,30.24,30.06,7,2,13,0.00
2013-4-3,44.6,33.2,21.6,23.4,9.8,5.3,60,40,23,30.30,30.24,7,2,11,0.00
2013-4-4,46.0,37.8,30.2,20.3,12.8,6.3,51,37,22,30.27,30.21,9,4,15,0.00
2013-4-5,45.0,36.7,26.1,23.0,11.4,2.4,61,36,22,30.24,30.21,9,4,15,0.00
2013-4-6,50.0,35.9,23.5,22.9,10.2,5.7,57,36,21,30.27,30.18,10,3,15,0.00
2013-4-7,44.1,37.1,31.6,21.2,16.7,9.1,55,44,28,30.18,29.97,10,4,16,0.00
2013-4-8,44.4,37.1,32.2,19.2,10.9,2.4,51,35,23,29.97,29.74,10,6,15,0.00
2013-4-9,44.2,36.5,29.7,18.0,10.0,5.3,48,34,23,29.74,29.65,12,6,19,0.00
2013-4-10,44.1,37.2,30.7,28.5,20.7,15.8,67,52,38,29.71,29.59,9,4,13,0.00
2013-4-11,45.9,39.3,34.2,27.5,18.7,13.5,66,45,28,29.59,29.41,8,4,12,0.00
2013-4-12,47.5,39.3,34.5,27.1,22.7,15.6,66,52,31,29.65,29.38,8,4,15,0.00
2013-4-13,57.7,46.4,38.3,34.5,24.2,13.6,70,46,19,29.74,29.44,8,3,20,0.00
2013-4-14,56.3,51.3,48.7,39.9,31.6,23.8,67,48,29,29.50,29.38,16,10,28,0.28
2013-4-15,54.9,49.4,45.9,36.6,27.6,18.7,60,43,26,29.74,29.47,18,9,27,0.12
2013-4-16,52.3,47.5,42.7,32.7,22.5,11.5,59,38,21,29.83,29.38,23,12,36,0.08
2013-4-17,51.8,45.1,36.4,42.4,29.8,17.0,76,56,35,29.83,29.12,15,7,27,0.55
2013-4-18,51.0,46.2,39.9,39.6,25.6,15.7,76,46,27,29.91,29.12,21,10,31,0.20
2013-4-19,55.9,44.1,31.4,29.0,16.7,9.5,61,36,20,30.42,29.91,10,3,15,0.00
2013-4-20,55.8,45.8,34.5,25.4,17.8,11.8,52,34,20,30.42,30.12,15,6,24,0.00
2013-4-21,52.9,45.3,39.4,31.5,22.6,15.3,57,41,23,30.12,29.83,13,7,19,0.04
2013-4-22,54.5,45.8,38.7,37.3,24.2,17.8,62,44,25,29.85,29.59,17,9,28,0.04
2013-4-23,52.9,47.6,43.9,26.8,21.3,15.7,50,36,26,30.03,29.74,15,9,26,0.00
2013-4-24,55.0,48.5,42.3,44.5,23.0,9.7,77,40,20,30.21,29.85,14,6,23,0.31
2013-4-25,51.1,43.1,38.8,25.7,18.8,12.5,54,38,27,30.21,30.00,12,5,22,0.04
2013-4-26,51.3,40.7,35.6,21.6,16.5,10.0,53,38,21,30.03,29.85,14,6,24,0.00
2013-4-27,55.4,43.0,34.2,21.6,13.6,7.6,51,32,20,30.12,29.97,9,5,15,0.00
2013-4-28,49.3,42.9,36.7,36.3,22.7,11.1,74,46,27,29.97,29.62,16,10,24,0.08
2013-4-29,53.2,43.9,36.9,25.1,18.3,11.5,57,37,21,30.09,29.62,20,9,32,0.00
2013-4-30,57.6,43.4,28.9,29.0,15.4,10.0,59,35,19,30.30,30.09,12,3,17,0.00
2013-5-1,55.9,45.6,32.5,27.6,15.8,5.5,50,31,20,30.27,30.09,14,7,21,0.00
2013-5-2,56.5,42.8,28.0,30.5,16.8,6.4,56,37,20,30.27,30.00,14,5,20,0.00
2013-5-3,51.6,47.9,41.0,39.9,33.0,24.5,70,56,48,30.00,29.68,14,8,24,0.63
2013-5-4,49.6,43.6,35.8,25.8,20.1,12.9,61,40,24,29.88,29.74,16,8,28,0.00
2013-5-5,59.0,52.6,47.1,34.7,29.8,23.1,54,42,29,30.03,29.88,14,8,22,0.00
2013-5-6,58.8,51.0,42.3,37.2,30.7,21.8,65,47,30,30.06,30.00,10,5,18,0.00
2013-5-7,67.1,52.2,34.9,39.8,25.4,18.6,68,39,20,30.06,29.85,10,4,14,0.00
2013-5-8,58.6,51.1,45.3,39.1,28.4,14.9,71,43,23,29.85,29.50,10,6,18,0.00
2013-5-9,55.6,46.7,39.4,36.5,24.7,15.4,72,44,22,29.53,29.35,9,5,17,0.04
2013-5-10,54.0,46.6,37.4,37.7,28.9,19.5,75,53,26,29.62,29.38,12,5,20,0.04
2013-5-11,49.1,45.0,40.3,38.1,26.6,20.7,70,49,33,29.74,29.50,13,7,21,0.08
2013-5-12,51.3,46.2,39.9,39.8,27.6,17.4,68,49,30,29.80,29.59,13,7,22,0.08
2013-5-13,47.2,40.8,35.1,31.7,23.3,18.8,72,50,33,29.62,29.44,16,10,31,0.28
2013-5-14,51.6,43.8,35.8,29.5,22.9,16.2,65,45,26,29.44,29.38,20,8,27,0.12
2013-5-15,55.8,42.9,30.9,32.5,20.2,15.5,71,42,22,29.41,29.29,13,3,18,0.04
2013-5-16,57.7,44.8,33.1,29.0,19.4,12.1,61,38,20,29.71,29.38,8,4,14,0.00
2013-5-17,62.1,49.5,41.0,35.5,23.8,15.1,72,42,19,29.88,29.71,7,3,13,0.00
2013-5-18,53.2,49.6,46.4,46.3,37.7,22.0,86,65,35,29.85,29.71,10,3,20,0.87
2013-5-19,59.5,52.0,47.3,55.2,47.8,43.6,89,86,75,29.97,29.80,10,2,17,0.04
2013-5-20,71.4,60.0,52.9,53.1,42.0,30.0,75,56,23,30.03,29.91,8,2,15,0.00
2013-5-21,65.7,53.4,40.3,43.5,28.2,20.3,71,42,20,30.09,30.03,9,3,14,0.00
2013-5-22,59.2,49.9,37.6,27.4,18.6,10.8,49,30,19,30.09,30.00,18,7,28,0.00
2013-5-23,51.4,42.6,32.2,19.6,13.1,9.3,49,31,21,30.03,29.91,16,8,29,0.00
2013-5-24,56.8,46.9,36.1,21.2,15.8,11.0,44,29,21,30.21,29.91,13,6,20,0.00
2013-5-25,61.9,42.3,32.4,33.3,18.8,12.4,63,41,19,30.21,30.12,9,3,14,0.00
2013-5-26,61.9,50.5,37.4,31.4,22.2,13.2,53,34,24,30.12,29.77,9,4,15,0.00
2013-5-27,54.9,49.5,44.6,30.9,27.3,19.8,51,42,30,29.77,29.44,12,6,23,0.00
2013-5-28,57.7,49.3,44.4,33.2,27.1,20.2,56,43,25,29.80,29.53,9,3,16,0.00
2013-5-29,62.8,53.1,35.6,37.0,27.8,21.0,66,40,24,29.94,29.80,8,2,13,0.00
2013-5-30,68.7,57.4,46.9,33.7,27.3,22.5,48,33,22,30.09,29.91,8,2,14,0.00
2013-5-31,66.0,54.5,43.7,35.2,25.5,16.6,61,34,21,30.18,30.06,12,5,17,0.00
2013-6-1,61.2,49.8,38.3,32.4,21.0,15.6,53,33,21,30.30,30.18,10,5,17,0.04
2013-6-2,67.4,51.5,34.5,32.9,21.6,17.1,62,34,18,30.44,30.30,10,4,15,0.00
2013-6-3,70.5,57.5,41.5,34.6,29.1,20.5,53,35,22,30.50,30.44,7,2,9,0.00
2013-6-4,68.5,58.3,48.2,34.2,27.4,21.7,51,32,20,30.50,30.33,8,4,13,0.00
2013-6-5,69.1,54.8,47.8,45.0,31.7,26.5,68,43,22,30.33,30.18,9,4,13,0.00
2013-6-6,75.2,56.6,45.5,41.8,30.8,22.4,68,42,18,30.27,30.18,6,1,9,0.00
2013-6-7,63.9,51.8,39.7,43.1,29.2,23.6,69,44,24,30.33,30.27,9,3,13,0.00
2013-6-8,76.0,56.5,39.2,45.6,29.4,21.6,70,40,18,30.33,30.12,10,2,15,0.00
2013-6-9,64.6,54.3,47.5,39.7,31.8,24.3,65,44,24,30.15,30.00,9,4,17,0.00
2013-6-10,63.1,53.6,47.4,39.3,33.0,25.7,68,48,25,30.03,29.91,8,4,13,0.00
2013-6-11,62.1,53.9,46.0,46.1,37.4,24.0,71,55,24,29.91,29.71,7,2,11,0.08
2013-6-12,63.9,56.5,49.4,44.7,33.6,24.2,67,44,24,29.71,29.59,13,4,18,0.04
2013-6-13,62.6,53.2,43.0,39.5,25.2,18.5,67,36,21,29.80,29.59,15,5,18,0.00
2013-6-14,66.4,55.0,46.2,35.8,27.3,21.9,66,37,20,29.83,29.59,10,6,17,0.04
2013-6-15,54.0,49.9,46.8,39.9,32.2,22.3,69,52,29,29.59,29.41,15,6,24,0.12
2013-6-16,66.7,54.8,44.9,46.0,32.3,22.4,76,47,20,30.00,29.59,7,2,10,0.00
2013-6-17,65.8,56.0,46.0,45.3,34.7,26.8,71,47,24,30.09,30.00,6,2,10,0.00
2013-6-18,72.7,60.9,50.7,44.6,32.4,23.1,62,38,19,30.06,29.94,8,2,13,0.00
2013-6-19,68.2,57.4,48.2,36.3,27.3,19.6,57,34,20,30.03,29.97,12,4,20,0.00
2013-6-20,76.8,62.0,45.3,34.6,28.8,20.5,52,31,18,30.03,29.80,9,3,20,0.00
2013-6-21,67.5,61.5,55.6,37.6,29.9,20.1,47,32,20,29.83,29.62,9,3,13,0.00
2013-6-22,61.5,55.1,50.4,40.5,32.8,24.1,65,44,26,29.62,29.32,14,4,18,0.08
2013-6-23,61.7,54.6,49.3,46.2,34.2,23.0,72,49,24,29.94,29.38,15,6,25,0.04
2013-6-24,61.2,53.3,46.4,32.5,23.6,17.1,55,33,21,30.27,29.94,10,4,15,0.04
2013-6-25,64.4,53.4,37.9,35.8,24.6,17.9,59,34,20,30.39,30.27,9,3,14,0.00
2013-6-26,68.4,57.0,45.3,40.1,27.1,19.4,64,35,20,30.42,30.39,10,4,15,0.00
2013-6-27,58.1,53.6,48.2,44.2,34.7,23.4,63,49,37,30.42,30.15,7,3,13,0.08
2013-6-28,64.6,56.3,49.3,48.8,37.3,19.0,75,52,26,30.15,29.91,14,7,23,0.16
2013-6-29,59.9,53.9,47.3,45.1,30.0,23.2,67,41,25,30.15,30.06,12,6,20,0.00
2013-6-30,61.9,56.0,50.5,44.6,34.4,27.2,66,45,27,30.12,29.88,17,8,28,0.08
2013-7-1,62.1,53.7,47.5,35.7,25.8,17.4,61,36,21,29.91,29.85,12,7,18,0.00
2013-7-2,57.6,52.7,48.4,43.3,34.1,24.1,65,50,33,29.91,29.47,13,4,26,0.12
2013-7-3,63.0,57.5,54.5,46.3,36.3,25.9,72,48,26,29.83,29.47,9,4,15,0.04
2013-7-4,63.3,58.2,52.9,51.2,34.3,22.4,73,43,24,30.15,29.74,16,8,24,0.20
2013-7-5,70.6,59.3,52.2,43.1,31.1,24.7,69,37,22,30.39,30.15,12,6,20,0.00
2013-7-6,75.6,62.6,46.0,41.0,29.9,24.8,64,32,18,30.44,30.33,12,5,16,0.00
2013-7-7,79.9,66.4,55.0,49.8,35.2,26.8,68,36,17,30.62,30.44,9,5,13,0.00
2013-7-8,81.1,64.4,53.4,53.4,41.3,33.2,74,49,19,30.65,30.50,8,1,12,0.00
2013-7-9,87.7,69.9,55.6,52.5,38.9,31.1,68,38,16,30.50,30.33,13,5,17,0.00
2013-7-10,72.1,61.3,53.4,46.2,38.9,28.5,67,47,22,30.42,30.36,9,4,15,0.00
2013-7-11,84.2,66.7,53.6,43.9,38.1,33.7,56,38,18,30.39,30.27,7,1,9,0.00
2013-7-12,84.9,70.2,55.6,53.2,38.1,30.6,69,36,16,30.27,30.21,12,4,15,0.00
2013-7-13,78.8,64.5,55.6,51.6,38.8,29.8,68,43,17,30.33,30.24,8,4,13,0.00
2013-7-14,73.0,62.1,53.8,46.0,33.7,22.6,71,40,19,30.33,30.18,13,5,19,0.00
2013-7-15,62.2,55.5,51.6,38.7,34.7,28.2,54,46,29,30.21,30.18,8,5,13,0.00
2013-7-16,73.4,65.4,59.5,56.5,38.4,28.3,82,40,21,30.24,30.18,20,5,20,0.00
2013-7-17,73.8,65.2,52.9,58.6,55.9,51.0,96,74,54,30.33,30.24,12,4,20,0.00
2013-7-18,83.3,69.0,56.3,65.3,60.2,54.3,95,75,51,30.36,30.32,9,4,15,0.00
2013-7-19,75.6,65.3,53.3,61.6,57.8,51.7,97,78,60,30.38,30.33,10,5,17,0.00
2013-7-20,72.2,62.9,56.6,62.7,58.2,54.9,96,85,70,30.36,30.27,10,4,17,0.00
2013-7-21,67.5,59.9,55.7,58.6,55.5,52.5,94,86,71,30.28,30.14,10,4,24,0.00
2013-7-22,65.8,59.7,57.3,60.9,57.7,55.6,97,93,83,30.14,29.99,13,4,20,0.00
2013-7-23,70.3,62.5,58.8,65.9,60.8,57.6,97,94,84,29.99,29.85,9,3,15,0.40
2013-7-24,73.1,64.3,56.0,64.6,59.8,54.1,98,86,68,29.89,29.85,8,2,12,0.07
2013-7-25,65.8,61.0,56.6,63.4,59.3,54.6,97,94,89,29.88,29.79,8,3,13,0.13
2013-7-26,71.5,62.5,54.9,63.6,58.7,53.1,97,88,65,29.85,29.81,8,2,18,0.98
2013-7-27,75.5,60.8,50.5,60.9,56.2,49.4,98,86,56,29.84,29.65,8,2,12,0.07
2013-7-28,65.2,59.5,55.5,60.6,57.4,54.0,97,93,82,29.65,29.52,7,2,13,0.77
2013-7-29,67.0,58.9,52.4,62.3,57.0,51.5,98,93,81,29.74,29.61,10,2,18,0.14
2013-7-30,70.3,58.7,50.1,55.9,52.9,49.0,98,83,51,29.79,29.73,14,4,23,0.12
2013-7-31,67.9,58.6,49.8,57.4,53.0,48.5,98,83,53,29.87,29.75,9,2,13,0.12
2013-8-1,71.0,62.9,57.1,64.5,60.7,55.7,98,93,79,29.75,29.61,10,3,20,0.28
2013-8-2,73.8,65.9,58.9,61.6,58.1,54.5,95,78,55,29.62,29.53,15,6,30,0.01
2013-8-3,66.3,59.5,55.1,55.1,52.3,49.5,91,78,55,29.84,29.56,20,8,29,0.02
2013-8-4,70.3,59.5,50.8,55.8,52.5,48.6,95,79,55,29.90,29.83,14,5,21,0.03
2013-8-5,68.3,56.5,49.1,57.8,52.1,47.5,97,86,62,29.88,29.74,9,2,16,0.00
2013-8-6,64.7,55.8,44.6,53.7,49.3,43.0,98,80,60,29.98,29.86,8,2,13,0.00
2013-8-7,67.0,58.0,48.4,58.5,52.8,46.8,96,84,63,30.06,29.96,6,1,12,0.04
2013-8-8,69.5,58.1,48.7,60.4,53.2,47.3,98,85,61,30.06,29.91,16,2,22,0.03
2013-8-9,66.0,59.2,53.0,57.0,53.5,48.3,96,82,63,30.11,29.86,13,5,23,0.02
2013-8-10,63.0,56.7,51.7,53.4,50.3,47.9,91,79,62,30.11,29.98,10,4,16,0.00
2013-8-11,62.8,55.5,50.8,53.0,50.9,48.8,95,85,65,29.98,29.86,13,6,22,0.05
2013-8-12,64.9,56.9,50.3,53.2,50.3,48.4,95,80,58,30.02,29.84,13,6,22,0.00
2013-8-13,64.6,56.0,44.9,51.5,48.3,43.3,97,76,56,30.14,30.02,9,3,14,0.00
2013-8-14,70.5,60.3,49.0,58.6,54.5,46.8,95,82,62,30.14,29.93,10,4,20,0.03
2013-8-15,66.5,62.2,59.1,62.7,60.1,58.0,96,93,85,29.92,29.74,12,5,20,0.17
2013-8-16,67.0,59.1,50.9,59.8,54.3,49.0,96,85,66,29.86,29.73,14,5,21,0.02
2013-8-17,69.2,59.4,51.5,61.7,55.3,49.5,96,87,65,29.84,29.39,16,7,30,0.17
2013-8-18,61.2,55.6,51.9,53.2,50.1,48.4,92,82,65,29.80,29.45,16,8,26,0.02
2013-8-19,63.7,56.4,51.5,54.3,50.9,48.2,94,82,60,30.17,29.80,15,6,25,0.02
2013-8-20,66.7,58.2,53.1,57.5,53.9,49.9,95,86,66,30.24,30.14,10,4,16,0.05
2013-8-21,72.1,62.0,56.9,61.5,58.0,55.5,96,87,63,30.14,30.03,10,4,16,0.03
2013-8-22,64.7,58.3,54.8,60.8,56.8,54.0,98,95,87,30.12,30.00,9,3,16,0.00
2013-8-23,68.2,58.9,46.9,62.5,56.0,46.1,99,90,78,30.00,29.87,7,1,13,0.00
2013-8-24,66.8,59.2,55.5,56.8,54.4,51.8,97,85,64,29.97,29.90,8,2,15,0.02
2013-8-25,68.5,58.2,45.1,61.4,54.4,43.5,97,87,76,30.16,29.97,5,1,9,0.01
2013-8-26,73.3,60.3,48.6,62.1,55.5,47.5,98,85,67,30.17,30.09,7,2,12,0.00
2013-8-27,66.9,58.4,49.0,60.1,54.8,47.3,97,88,74,30.21,30.07,8,2,14,0.00
2013-8-28,66.6,57.4,51.7,57.2,52.4,46.4,96,84,66,30.21,30.08,9,4,15,0.00
2013-8-29,62.4,57.6,51.7,57.4,54.5,47.0,95,89,80,30.09,30.00,12,5,20,0.01
2013-8-30,64.2,57.8,49.7,60.5,54.4,43.8,94,89,79,30.08,29.84,17,6,25,0.02
2013-8-31,61.6,53.5,46.6,49.3,45.2,39.8,91,75,48,30.29,30.08,15,6,27,0.00
2013-9-1,57.7,55.1,52.5,55.1,50.9,48.1,95,86,77,30.28,30.13,17,9,29,0.01
2013-9-2,64.9,60.8,56.5,59.8,57.8,55.1,95,90,83,30.24,30.10,16,9,29,0.00
2013-9-3,70.6,61.9,53.3,60.6,57.3,51.2,97,86,61,30.25,30.18,12,5,20,0.02
2013-9-4,70.5,59.1,52.2,55.6,52.3,47.6,96,80,57,30.18,29.90,13,4,21,0.00
2013-9-5,65.0,55.2,40.5,52.8,46.6,37.9,93,75,48,29.91,29.86,12,3,16,0.00
2013-9-6,55.4,48.1,40.7,49.6,45.7,38.8,97,91,76,29.94,29.88,8,2,16,0.55
2013-9-7,60.4,51.0,45.6,52.9,47.9,44.2,98,90,69,29.92,29.75,9,3,18,0.35
2013-9-8,59.4,50.0,39.5,50.3,45.4,37.9,97,85,67,29.98,29.92,7,2,12,0.01
2013-9-9,61.4,51.1,44.3,52.0,47.6,42.3,97,88,66,30.17,29.96,9,1,14,0.00
2013-9-10,65.0,53.3,41.9,51.7,47.1,40.6,97,81,59,30.25,30.17,13,3,21,0.00
2013-9-11,59.3,53.6,45.6,57.2,52.1,44.1,97,95,92,30.24,30.08,6,1,10,0.36
2013-9-12,65.9,58.3,52.8,59.5,55.7,51.1,96,91,73,30.09,29.87,10,4,20,0.05
2013-9-13,52.7,50.0,45.5,51.0,48.0,44.2,96,93,85,30.09,29.97,8,1,13,0.07
2013-9-14,60.7,48.8,38.2,48.6,43.9,37.2,98,85,58,30.08,29.93,8,2,13,0.00
2013-9-15,57.4,50.1,42.2,56.3,46.8,39.5,97,89,66,29.92,29.21,21,9,36,0.53
2013-9-16,54.3,46.6,40.8,47.6,42.8,38.7,93,87,73,29.35,29.28,16,8,26,0.01
2013-9-17,55.8,48.4,40.0,48.5,43.9,38.0,95,85,71,29.40,29.30,13,6,22,0.00
2013-9-18,56.7,46.6,38.8,48.3,42.9,37.5,98,88,68,29.74,29.40,14,4,24,0.02
2013-9-19,53.1,48.5,43.7,52.2,47.3,42.1,97,96,93,29.77,29.51,8,2,14,0.24
2013-9-20,59.3,51.6,41.7,51.1,47.3,40.4,98,86,64,30.05,29.77,13,5,24,0.02
2013-9-21,62.0,56.4,50.0,59.0,53.7,48.0,94,91,85,30.11,30.03,13,5,21,0.00
2013-9-22,67.9,61.6,54.4,59.2,57.0,52.3,94,85,68,30.29,30.10,14,6,25,0.00
2013-9-23,66.3,57.1,48.2,60.4,54.9,47.3,98,93,81,30.28,30.11,7,1,10,0.00
2013-9-24,58.8,56.7,54.8,57.4,55.7,54.1,98,97,95,30.11,29.96,7,2,12,0.01
2013-9-25,54.9,51.9,45.0,54.3,50.8,43.1,98,96,89,30.05,29.90,9,3,20,0.04
2013-9-26,55.9,49.6,41.2,50.6,46.9,39.7,98,90,78,30.12,30.05,6,1,10,0.00
2013-9-27,59.1,54.8,51.2,56.1,53.1,49.5,97,94,87,30.07,29.93,6,0,7,0.04
2013-9-28,64.8,55.0,46.2,58.3,51.8,45.1,99,89,75,29.93,29.86,7,2,14,0.00
2013-9-29,62.5,53.0,47.5,52.8,48.3,45.3,94,85,65,29.93,29.89,10,4,17,0.00
2013-9-30,58.2,52.4,48.5,51.1,48.5,46.2,95,87,75,29.91,29.82,13,4,20,0.00
2013-10-1,58.8,52.4,47.3,50.5,47.6,44.6,92,84,67,29.90,29.83,9,3,18,0.01
2013-10-2,57.5,55.3,52.8,55.3,52.1,48.4,95,89,84,29.85,29.75,9,4,17,0.20
2013-10-3,66.5,59.7,55.8,62.3,57.9,54.9,97,94,84,29.77,29.53,7,2,12,0.34
2013-10-4,60.0,57.6,53.3,59.4,56.3,51.7,98,95,87,29.82,29.52,8,3,14,0.12
2013-10-5,59.2,54.9,51.4,53.3,51.6,49.8,95,89,74,30.09,29.81,12,5,17,0.00
2013-10-6,61.2,58.2,55.7,58.5,55.8,53.0,95,92,83,30.09,30.04,13,6,22,0.01
2013-10-7,65.5,60.9,58.7,59.4,57.6,56.0,95,89,79,30.08,29.98,17,7,26,0.05
2013-10-8,59.1,54.9,49.7,58.0,52.4,46.6,96,91,83,30.16,29.97,15,7,21,0.03
2013-10-9,51.7,48.0,42.4,48.2,41.9,33.4,94,80,63,30.14,29.94,20,9,30,0.03
2013-10-10,51.8,44.0,36.7,41.1,36.9,33.2,92,77,63,30.44,30.14,12,4,21,0.00
2013-10-11,49.9,45.9,37.9,44.6,41.2,35.7,92,84,81,30.51,30.44,7,3,15,0.00
2013-10-12,53.8,48.9,46.0,48.4,45.7,42.7,94,89,78,30.48,30.27,8,3,23,0.00
2013-10-13,54.3,48.9,45.8,49.1,46.6,43.3,97,92,79,30.27,30.03,9,4,22,0.12
2013-10-14,52.6,49.5,46.1,50.5,47.8,44.0,97,94,87,30.03,29.93,7,2,14,0.01
2013-10-15,52.1,48.3,42.4,49.6,46.9,41.2,97,95,88,29.99,29.90,8,3,14,0.02
2013-10-16,51.0,45.5,36.7,48.3,44.3,35.7,98,95,89,29.98,29.59,8,2,15,0.61
2013-10-17,53.0,48.2,44.8,52.4,47.5,44.0,98,97,95,29.97,29.63,8,2,13,0.20
2013-10-18,52.3,49.1,45.1,51.5,48.1,44.3,98,96,93,29.99,29.68,8,5,13,0.17
2013-10-19,58.2,53.5,49.6,57.3,52.4,48.6,98,96,94,29.67,29.45,7,2,12,0.54
2013-10-20,58.0,52.1,48.2,55.2,50.9,47.4,99,96,87,29.47,29.40,6,2,10,0.07
2013-10-21,57.0,52.2,49.0,56.4,50.9,47.9,99,95,90,29.52,29.26,10,3,17,0.24
2013-10-22,58.1,55.8,53.7,57.1,54.6,52.3,98,96,90,29.26,29.09,10,3,20,0.39
2013-10-23,55.1,50.9,44.9,54.3,48.3,41.4,98,91,76,29.56,28.99,17,6,26,0.41
2013-10-24,54.0,47.8,41.4,48.2,44.2,39.0,95,88,74,29.90,29.56,12,5,21,0.00
2013-10-25,59.4,51.9,46.6,56.5,49.8,44.2,98,93,85,29.84,29.31,12,5,21,0.16
2013-10-26,54.3,50.7,44.6,52.8,48.4,43.0,95,92,82,29.43,29.14,14,5,22,0.11
2013-10-27,51.7,48.1,44.5,48.4,46.1,43.1,96,93,85,29.17,28.84,20,8,38,0.51
2013-10-28,52.1,47.1,43.4,47.7,45.2,41.8,96,93,82,29.33,28.88,13,6,23,0.17
2013-10-29,50.9,44.6,41.1,45.0,41.5,39.0,95,89,78,29.87,29.33,12,6,21,0.00
2013-10-30,52.4,45.4,37.6,50.8,43.5,35.5,98,93,84,29.92,29.59,13,5,25,0.11
2013-10-31,52.1,45.9,42.8,46.8,43.2,41.3,96,90,78,29.82,29.59,20,8,32,0.24
2013-11-1,49.9,44.5,40.6,44.1,41.5,39.0,95,89,78,29.61,29.55,17,8,26,0.01
2013-11-2,44.7,40.3,34.1,43.6,39.0,32.8,97,95,89,29.55,28.84,12,4,20,0.31
2013-11-3,48.2,41.9,33.3,40.9,38.1,31.7,95,86,72,29.28,28.95,17,7,30,0.02
2013-11-4,48.5,35.6,29.9,41.9,33.3,28.6,98,92,73,29.38,29.21,6,1,10,0.01
2013-11-5,41.9,35.2,28.6,40.8,34.1,27.6,98,96,91,29.33,29.18,8,1,18,0.05
2013-11-6,44.6,40.6,36.6,43.3,39.2,35.3,97,95,91,29.37,29.25,10,4,18,0.09
2013-11-7,46.9,42.0,37.5,43.3,39.4,35.9,96,91,79,29.48,29.38,17,8,28,0.29
2013-11-8,48.5,41.5,35.3,44.0,39.5,34.0,97,93,81,29.54,29.46,13,5,21,0.02
2013-11-9,41.9,35.6,29.2,40.3,34.4,28.2,98,96,92,29.66,29.50,9,2,16,0.04
2013-11-10,46.0,34.8,28.2,41.8,33.1,27.3,99,94,79,30.11,29.66,7,1,14,0.01
2013-11-11,53.6,47.5,41.7,52.8,45.1,38.9,98,91,82,30.03,29.81,12,6,22,0.06
2013-11-12,48.2,44.0,40.9,45.7,41.2,38.8,95,90,77,30.36,30.03,14,6,26,0.10
2013-11-13,47.6,44.8,41.4,45.3,42.1,39.3,96,90,79,30.37,29.80,16,9,29,0.11
2013-11-14,47.9,41.4,35.3,43.8,36.6,31.9,94,83,62,30.48,29.79,14,5,25,0.01
2013-11-15,49.2,46.6,38.4,47.9,44.5,36.8,97,92,87,30.47,30.35,13,7,21,0.01
2013-11-16,51.3,49.0,41.7,49.7,46.6,39.1,95,92,87,30.35,30.21,15,8,26,0.01
2013-11-17,44.0,39.0,32.0,42.6,37.7,30.9,98,95,88,30.35,29.92,5,1,9,0.08
2013-11-18,44.1,38.3,31.8,42.8,36.6,30.5,98,94,81,29.92,29.76,9,2,15,0.01
2013-11-19,41.1,32.4,23.2,40.2,30.0,22.0,98,91,77,30.03,29.61,17,4,28,0.20
2013-11-20,43.6,40.0,35.4,41.7,35.8,31.6,96,85,74,29.80,29.39,20,10,30,0.18
2013-11-21,39.9,35.4,25.6,32.9,30.1,23.6,92,81,73,30.16,29.80,13,4,22,0.00
2013-11-22,40.4,28.7,22.9,34.5,26.4,21.4,98,91,72,30.30,30.16,5,0,7,0.01
2013-11-23,45.8,34.6,27.1,42.4,33.2,25.9,98,95,83,30.44,30.29,3,1,6,0.00
2013-11-24,41.0,35.4,28.6,39.5,34.3,27.6,98,96,92,30.68,30.44,2,0,5,0.01
2013-11-25,40.3,33.8,26.5,39.5,32.9,25.5,98,96,95,30.73,30.68,3,1,8,0.01
2013-11-26,50.1,45.6,39.0,48.6,44.6,37.9,98,96,94,30.70,30.51,10,5,17,0.08
2013-11-27,51.2,49.5,47.0,48.9,47.7,45.9,97,94,88,30.52,30.47,10,6,18,0.00
2013-11-28,46.9,39.7,32.7,45.8,38.6,31.8,99,96,93,30.61,30.34,10,2,17,0.02
2013-11-29,46.5,42.0,34.5,45.3,38.7,31.7,97,88,81,30.34,30.10,18,8,33,0.15
2013-11-30,46.1,39.0,30.5,44.7,37.3,29.0,97,93,84,30.41,30.30,10,3,20,0.00
2013-12-1,50.6,42.7,35.9,47.1,41.4,35.0,98,95,85,30.58,30.38,8,2,14,0.01
2013-12-2,45.9,43.8,38.4,44.4,41.6,37.9,98,92,87,30.58,30.33,15,5,22,0.00
2013-12-3,48.0,45.9,36.4,46.5,44.2,34.0,96,94,91,30.32,30.11,14,8,23,0.07
2013-12-4,42.8,38.7,32.9,40.7,36.5,31.7,97,92,84,30.28,30.06,17,5,32,0.05
2013-12-5,46.7,38.8,32.2,45.1,35.4,25.6,95,87,70,30.11,29.45,31,13,52,0.64
2013-12-6,35.6,33.3,29.8,31.9,28.9,25.4,95,84,73,30.32,30.11,12,2,17,0.00
2013-12-7,47.0,41.1,33.2,46.0,40.2,31.8,98,96,94,30.21,29.94,15,5,24,0.13
2013-12-8,52.6,49.6,46.8,51.1,48.4,45.1,97,95,93,29.95,29.84,18,12,28,0.36
2013-12-9,51.9,50.0,47.8,50.6,48.0,43.8,97,93,86,30.18,29.95,17,8,23,0.13
2013-12-10,52.0,49.1,47.3,48.6,46.4,43.2,94,90,84,30.20,30.12,14,7,27,0.00
2013-12-11,50.7,47.6,42.3,49.2,44.6,38.5,95,89,79,30.23,30.00,12,6,24,0.00
2013-12-12,53.0,50.5,45.5,51.6,48.5,39.7,97,93,74,30.00,29.90,12,6,26,0.29
2013-12-13,53.6,49.6,41.7,51.4,47.1,38.4,96,91,85,29.91,29.68,16,8,36,0.02
2013-12-14,50.6,45.4,38.4,49.2,43.0,35.4,96,92,87,29.90,29.43,22,10,40,0.62
2013-12-15,47.7,43.4,38.1,46.1,41.3,36.4,97,92,84,29.84,29.52,20,7,40,0.35
2013-12-16,47.5,41.7,38.6,44.7,38.8,36.3,93,90,85,29.94,29.50,16,10,26,0.14
2013-12-17,44.0,39.8,36.4,39.8,36.8,33.9,92,89,83,30.07,29.72,15,7,27,0.01
2013-12-18,51.2,46.0,41.2,48.5,43.3,37.2,94,90,79,29.72,28.73,22,9,39,0.22
2013-12-19,42.9,37.9,35.3,37.4,34.8,33.2,95,88,80,29.47,28.81,29,13,41,0.13
2013-12-20,50.5,42.8,36.8,48.3,40.9,35.0,96,93,87,29.73,29.35,25,11,40,0.61
2013-12-21,47.2,43.7,39.0,43.8,40.4,36.9,95,88,81,29.48,29.24,21,11,32,0.28
2013-12-22,40.4,37.8,34.7,37.1,35.5,33.2,95,91,86,29.51,29.28,18,11,36,0.24
2013-12-23,47.7,40.7,35.0,46.4,38.7,32.8,97,93,89,29.51,28.29,14,7,29,0.28
2013-12-24,47.3,39.6,36.8,45.6,35.3,31.5,94,85,72,28.45,28.23,25,15,44,0.11
2013-12-25,43.6,40.6,38.6,38.1,36.7,35.3,92,86,78,29.06,28.45,23,13,40,0.14
2013-12-26,42.0,38.0,33.9,38.4,35.6,32.1,95,91,85,29.28,28.60,9,4,24,0.01
2013-12-27,44.5,42.4,38.3,43.1,40.6,36.2,96,93,90,28.74,28.16,24,14,44,0.83
2013-12-28,41.1,40.2,38.5,39.4,37.9,36.2,95,92,87,29.48,28.74,20,10,33,0.11
2013-12-29,44.7,40.5,37.0,43.4,38.8,35.4,96,94,89,29.78,29.46,14,5,25,0.09
2013-12-30,47.4,42.1,36.0,46.1,41.0,35.0,97,96,94,29.59,29.28,15,5,26,0.98
2013-12-31,44.7,40.7,35.6,42.8,38.7,34.6,97,93,89,29.58,29.22,10,5,25,0.03
2014-1-1,45.7,40.0,36.8,45.2,38.7,35.3,98,95,92,29.27,28.67,15,5,23,0.13
2014-1-2,44.6,42.1,39.4,42.0,40.1,37.1,96,93,87,29.12,28.67,15,7,29,0.02